Terminal Aerodrome Forecast
Issued by NWS Sioux Falls, SD

Home | Current Version | Previous Version | Text Only | Print | Product List | Glossary On
Versions: 1 2 3 4 5 6 7 8 9 10 11 12 13 14
000
FTUS43 KFSD 231100
TAFFSD
TAF
KFSD 231137Z 2312/2412 13020G28KT P6SM OVC080
     FM231600 15025G34KT P6SM BKN050
     FM240100 12013KT P6SM BKN050
     FM240300 11010KT 6SM -TSRA BKN040CB
     FM240700 36008KT P6SM BKN070=

USA.gov is the U.S. government's official web portal to all federal, state and local government web resources and services.